sensor_id;sensor_type;location;lat;lon;timestamp;P1;durP1;ratioP1;P2;durP2;ratioP2
68315;SDS011;55508;54.368;18.406;2022-07-24T00:01:38;2.45;;;1.98;;
68315;SDS011;55508;54.368;18.406;2022-07-24T00:04:06;3.13;;;1.63;;
68315;SDS011;55508;54.368;18.406;2022-07-24T00:06:33;2.90;;;1.95;;
68315;SDS011;55508;54.368;18.406;2022-07-24T00:09:00;4.25;;;1.90;;
68315;SDS011;55508;54.368;18.406;2022-07-24T00:11:28;3.22;;;1.88;;
68315;SDS011;55508;54.368;18.406;2022-07-24T00:13:55;3.40;;;1.92;;
68315;SDS011;55508;54.368;18.406;2022-07-24T00:16:22;2.97;;;1.67;;
68315;SDS011;55508;54.368;18.406;2022-07-24T00:18:50;4.00;;;1.98;;
68315;SDS011;55508;54.368;18.406;2022-07-24T00:21:17;4.88;;;1.77;;
68315;SDS011;55508;54.368;18.406;2022-07-24T00:23:44;5.35;;;1.77;;
68315;SDS011;55508;54.368;18.406;2022-07-24T00:26:11;1.77;;;1.60;;
68315;SDS011;55508;54.368;18.406;2022-07-24T00:28:38;2.78;;;1.70;;
68315;SDS011;55508;54.368;18.406;2022-07-24T00:31:05;3.10;;;1.60;;
68315;SDS011;55508;54.368;18.406;2022-07-24T00:33:33;2.88;;;1.88;;
68315;SDS011;55508;54.368;18.406;2022-07-24T00:36:00;4.03;;;1.95;;
68315;SDS011;55508;54.368;18.406;2022-07-24T00:38:27;2.58;;;1.80;;
68315;SDS011;55508;54.368;18.406;2022-07-24T00:40:55;3.42;;;1.70;;
68315;SDS011;55508;54.368;18.406;2022-07-24T00:43:22;3.90;;;1.80;;
68315;SDS011;55508;54.368;18.406;2022-07-24T00:45:49;2.45;;;1.75;;
68315;SDS011;55508;54.368;18.406;2022-07-24T00:48:16;4.25;;;1.73;;
68315;SDS011;55508;54.368;18.406;2022-07-24T00:50:45;3.90;;;1.60;;
68315;SDS011;55508;54.368;18.406;2022-07-24T00:53:13;3.33;;;1.88;;
68315;SDS011;55508;54.368;18.406;2022-07-24T00:55:40;1.98;;;1.50;;
68315;SDS011;55508;54.368;18.406;2022-07-24T00:58:08;2.05;;;1.38;;
68315;SDS011;55508;54.368;18.406;2022-07-24T01:00:36;2.55;;;1.63;;
68315;SDS011;55508;54.368;18.406;2022-07-24T01:03:03;2.58;;;1.60;;
68315;SDS011;55508;54.368;18.406;2022-07-24T01:05:30;4.20;;;1.70;;
68315;SDS011;55508;54.368;18.406;2022-07-24T01:07:57;2.78;;;1.80;;
68315;SDS011;55508;54.368;18.406;2022-07-24T01:10:25;4.75;;;1.67;;
68315;SDS011;55508;54.368;18.406;2022-07-24T01:12:52;1.88;;;1.70;;
68315;SDS011;55508;54.368;18.406;2022-07-24T01:15:19;2.70;;;2.10;;
68315;SDS011;55508;54.368;18.406;2022-07-24T01:17:47;3.47;;;1.80;;
68315;SDS011;55508;54.368;18.406;2022-07-24T01:20:14;1.70;;;1.42;;
68315;SDS011;55508;54.368;18.406;2022-07-24T01:22:41;1.52;;;1.40;;
68315;SDS011;55508;54.368;18.406;2022-07-24T01:25:08;2.55;;;1.70;;
68315;SDS011;55508;54.368;18.406;2022-07-24T01:27:37;2.78;;;1.58;;
68315;SDS011;55508;54.368;18.406;2022-07-24T01:30:04;1.50;;;1.40;;
68315;SDS011;55508;54.368;18.406;2022-07-24T01:32:32;2.78;;;1.20;;
68315;SDS011;55508;54.368;18.406;2022-07-24T01:34:59;1.75;;;1.38;;
68315;SDS011;55508;54.368;18.406;2022-07-24T01:37:26;2.22;;;1.52;;
68315;SDS011;55508;54.368;18.406;2022-07-24T01:39:53;1.50;;;1.40;;
68315;SDS011;55508;54.368;18.406;2022-07-24T01:42:20;1.50;;;1.40;;
68315;SDS011;55508;54.368;18.406;2022-07-24T01:44:47;1.17;;;1.17;;
68315;SDS011;55508;54.368;18.406;2022-07-24T01:47:14;1.95;;;1.52;;
68315;SDS011;55508;54.368;18.406;2022-07-24T01:49:41;1.30;;;1.20;;
68315;SDS011;55508;54.368;18.406;2022-07-24T01:52:09;1.23;;;1.10;;
68315;SDS011;55508;54.368;18.406;2022-07-24T01:54:36;1.10;;;1.02;;
68315;SDS011;55508;54.368;18.406;2022-07-24T01:57:03;1.25;;;1.00;;
68315;SDS011;55508;54.368;18.406;2022-07-24T01:59:31;0.82;;;0.82;;
68315;SDS011;55508;54.368;18.406;2022-07-24T02:02:00;1.20;;;1.10;;
68315;SDS011;55508;54.368;18.406;2022-07-24T02:04:27;1.42;;;0.95;;
68315;SDS011;55508;54.368;18.406;2022-07-24T02:06:54;0.80;;;0.80;;
68315;SDS011;55508;54.368;18.406;2022-07-24T02:09:21;1.83;;;1.00;;
68315;SDS011;55508;54.368;18.406;2022-07-24T02:11:48;0.68;;;0.65;;
68315;SDS011;55508;54.368;18.406;2022-07-24T02:14:15;1.33;;;0.70;;
68315;SDS011;55508;54.368;18.406;2022-07-24T02:16:42;1.50;;;0.80;;
68315;SDS011;55508;54.368;18.406;2022-07-24T02:19:10;0.73;;;0.73;;
68315;SDS011;55508;54.368;18.406;2022-07-24T02:21:37;1.48;;;0.63;;
68315;SDS011;55508;54.368;18.406;2022-07-24T02:24:04;0.75;;;0.75;;
68315;SDS011;55508;54.368;18.406;2022-07-24T02:26:31;3.08;;;1.00;;
68315;SDS011;55508;54.368;18.406;2022-07-24T02:28:58;3.28;;;0.90;;
68315;SDS011;55508;54.368;18.406;2022-07-24T02:31:26;0.55;;;0.55;;
68315;SDS011;55508;54.368;18.406;2022-07-24T02:33:53;0.70;;;0.70;;
68315;SDS011;55508;54.368;18.406;2022-07-24T02:36:20;0.60;;;0.60;;
68315;SDS011;55508;54.368;18.406;2022-07-24T02:38:47;0.63;;;0.63;;
68315;SDS011;55508;54.368;18.406;2022-07-24T02:41:14;1.55;;;1.05;;
68315;SDS011;55508;54.368;18.406;2022-07-24T02:43:41;1.00;;;1.00;;
68315;SDS011;55508;54.368;18.406;2022-07-24T02:46:09;1.35;;;1.25;;
68315;SDS011;55508;54.368;18.406;2022-07-24T02:48:36;2.50;;;1.15;;
68315;SDS011;55508;54.368;18.406;2022-07-24T02:51:03;1.85;;;1.75;;
68315;SDS011;55508;54.368;18.406;2022-07-24T02:53:30;2.03;;;1.88;;
68315;SDS011;55508;54.368;18.406;2022-07-24T02:55:57;2.70;;;2.50;;
68315;SDS011;55508;54.368;18.406;2022-07-24T02:58:24;4.97;;;3.10;;
68315;SDS011;55508;54.368;18.406;2022-07-24T03:00:52;3.42;;;3.22;;
68315;SDS011;55508;54.368;18.406;2022-07-24T03:03:19;4.18;;;3.42;;
68315;SDS011;55508;54.368;18.406;2022-07-24T03:05:46;4.90;;;4.50;;
68315;SDS011;55508;54.368;18.406;2022-07-24T03:08:13;5.57;;;5.18;;
68315;SDS011;55508;54.368;18.406;2022-07-24T03:10:40;10.43;;;6.25;;
68315;SDS011;55508;54.368;18.406;2022-07-24T03:13:07;11.10;;;7.18;;
68315;SDS011;55508;54.368;18.406;2022-07-24T03:15:34;9.00;;;7.95;;
68315;SDS011;55508;54.368;18.406;2022-07-24T03:18:02;11.52;;;7.78;;
68315;SDS011;55508;54.368;18.406;2022-07-24T03:20:43;11.02;;;9.00;;
68315;SDS011;55508;54.368;18.406;2022-07-24T03:23:10;10.40;;;9.27;;
68315;SDS011;55508;54.368;18.406;2022-07-24T03:25:37;10.85;;;9.95;;
68315;SDS011;55508;54.368;18.406;2022-07-24T03:28:04;11.23;;;10.27;;
68315;SDS011;55508;54.368;18.406;2022-07-24T03:30:31;11.85;;;10.68;;
68315;SDS011;55508;54.368;18.406;2022-07-24T03:32:59;9.25;;;8.55;;
68315;SDS011;55508;54.368;18.406;2022-07-24T03:35:26;10.85;;;9.40;;
68315;SDS011;55508;54.368;18.406;2022-07-24T03:37:53;10.38;;;9.48;;
68315;SDS011;55508;54.368;18.406;2022-07-24T03:40:20;9.75;;;9.05;;
68315;SDS011;55508;54.368;18.406;2022-07-24T03:42:47;11.75;;;9.57;;
68315;SDS011;55508;54.368;18.406;2022-07-24T03:45:14;10.80;;;9.60;;
68315;SDS011;55508;54.368;18.406;2022-07-24T03:47:41;10.45;;;9.45;;
68315;SDS011;55508;54.368;18.406;2022-07-24T03:50:08;11.23;;;10.13;;
68315;SDS011;55508;54.368;18.406;2022-07-24T03:52:36;11.57;;;10.40;;
68315;SDS011;55508;54.368;18.406;2022-07-24T03:55:03;12.15;;;9.60;;
68315;SDS011;55508;54.368;18.406;2022-07-24T03:57:31;10.70;;;9.70;;
68315;SDS011;55508;54.368;18.406;2022-07-24T03:59:58;10.52;;;9.63;;
68315;SDS011;55508;54.368;18.406;2022-07-24T04:02:25;9.98;;;9.07;;
68315;SDS011;55508;54.368;18.406;2022-07-24T04:04:52;9.23;;;8.43;;
68315;SDS011;55508;54.368;18.406;2022-07-24T04:07:19;8.02;;;7.32;;
68315;SDS011;55508;54.368;18.406;2022-07-24T04:09:46;8.65;;;7.85;;
68315;SDS011;55508;54.368;18.406;2022-07-24T04:12:13;9.05;;;8.23;;
68315;SDS011;55508;54.368;18.406;2022-07-24T04:14:40;8.43;;;7.50;;
68315;SDS011;55508;54.368;18.406;2022-07-24T04:17:07;8.40;;;7.68;;
68315;SDS011;55508;54.368;18.406;2022-07-24T04:19:34;9.80;;;7.97;;
68315;SDS011;55508;54.368;18.406;2022-07-24T04:22:02;9.27;;;8.23;;
68315;SDS011;55508;54.368;18.406;2022-07-24T04:24:29;9.35;;;8.50;;
68315;SDS011;55508;54.368;18.406;2022-07-24T04:26:56;9.48;;;8.52;;
68315;SDS011;55508;54.368;18.406;2022-07-24T04:29:23;9.00;;;8.20;;
68315;SDS011;55508;54.368;18.406;2022-07-24T04:31:50;9.30;;;8.38;;
68315;SDS011;55508;54.368;18.406;2022-07-24T04:34:17;8.10;;;7.30;;
68315;SDS011;55508;54.368;18.406;2022-07-24T04:36:44;7.85;;;6.90;;
68315;SDS011;55508;54.368;18.406;2022-07-24T04:39:11;8.30;;;7.50;;
68315;SDS011;55508;54.368;18.406;2022-07-24T04:41:39;7.25;;;6.65;;
68315;SDS011;55508;54.368;18.406;2022-07-24T04:44:06;6.40;;;6.00;;
68315;SDS011;55508;54.368;18.406;2022-07-24T04:46:33;6.50;;;5.90;;
68315;SDS011;55508;54.368;18.406;2022-07-24T04:49:00;7.05;;;5.28;;
68315;SDS011;55508;54.368;18.406;2022-07-24T04:51:29;6.03;;;5.53;;
68315;SDS011;55508;54.368;18.406;2022-07-24T04:53:56;6.63;;;5.60;;
68315;SDS011;55508;54.368;18.406;2022-07-24T04:56:23;5.10;;;4.60;;
68315;SDS011;55508;54.368;18.406;2022-07-24T04:58:50;5.07;;;4.70;;
68315;SDS011;55508;54.368;18.406;2022-07-24T05:01:17;5.65;;;4.88;;
68315;SDS011;55508;54.368;18.406;2022-07-24T05:03:44;4.75;;;4.30;;
68315;SDS011;55508;54.368;18.406;2022-07-24T05:06:11;4.85;;;4.55;;
68315;SDS011;55508;54.368;18.406;2022-07-24T05:08:38;5.15;;;4.75;;
68315;SDS011;55508;54.368;18.406;2022-07-24T05:11:05;5.13;;;4.60;;
68315;SDS011;55508;54.368;18.406;2022-07-24T05:13:33;6.50;;;4.57;;
68315;SDS011;55508;54.368;18.406;2022-07-24T05:16:00;4.13;;;3.83;;
68315;SDS011;55508;54.368;18.406;2022-07-24T05:18:27;4.28;;;3.90;;
68315;SDS011;55508;54.368;18.406;2022-07-24T05:20:54;6.90;;;3.78;;
68315;SDS011;55508;54.368;18.406;2022-07-24T05:23:21;3.67;;;3.38;;
68315;SDS011;55508;54.368;18.406;2022-07-24T05:25:49;4.45;;;3.50;;
68315;SDS011;55508;54.368;18.406;2022-07-24T05:28:16;3.90;;;3.53;;
68315;SDS011;55508;54.368;18.406;2022-07-24T05:30:44;3.60;;;3.30;;
68315;SDS011;55508;54.368;18.406;2022-07-24T05:33:11;3.97;;;3.55;;
68315;SDS011;55508;54.368;18.406;2022-07-24T05:35:38;3.88;;;3.53;;
68315;SDS011;55508;54.368;18.406;2022-07-24T05:38:05;4.50;;;3.67;;
68315;SDS011;55508;54.368;18.406;2022-07-24T05:40:33;4.13;;;3.22;;
68315;SDS011;55508;54.368;18.406;2022-07-24T05:43:00;3.80;;;3.25;;
68315;SDS011;55508;54.368;18.406;2022-07-24T05:45:27;4.85;;;3.10;;
68315;SDS011;55508;54.368;18.406;2022-07-24T05:47:54;3.17;;;2.88;;
68315;SDS011;55508;54.368;18.406;2022-07-24T05:50:21;3.55;;;3.25;;
68315;SDS011;55508;54.368;18.406;2022-07-24T05:52:48;3.97;;;3.15;;
68315;SDS011;55508;54.368;18.406;2022-07-24T05:55:15;3.45;;;3.15;;
68315;SDS011;55508;54.368;18.406;2022-07-24T05:57:44;3.25;;;3.00;;
68315;SDS011;55508;54.368;18.406;2022-07-24T06:00:13;3.40;;;2.55;;
68315;SDS011;55508;54.368;18.406;2022-07-24T06:02:43;6.00;;;3.35;;
68315;SDS011;55508;54.368;18.406;2022-07-24T06:05:15;3.08;;;2.72;;
68315;SDS011;55508;54.368;18.406;2022-07-24T06:07:42;3.65;;;2.88;;
68315;SDS011;55508;54.368;18.406;2022-07-24T06:10:10;3.53;;;2.40;;
68315;SDS011;55508;54.368;18.406;2022-07-24T06:12:41;3.58;;;2.58;;
68315;SDS011;55508;54.368;18.406;2022-07-24T06:15:09;46.28;;;7.82;;
68315;SDS011;55508;54.368;18.406;2022-07-24T06:17:37;2.30;;;2.10;;
68315;SDS011;55508;54.368;18.406;2022-07-24T06:20:05;2.55;;;2.35;;
68315;SDS011;55508;54.368;18.406;2022-07-24T06:22:33;2.13;;;1.92;;
68315;SDS011;55508;54.368;18.406;2022-07-24T06:25:01;2.92;;;2.45;;
68315;SDS011;55508;54.368;18.406;2022-07-24T06:27:28;2.55;;;2.35;;
68315;SDS011;55508;54.368;18.406;2022-07-24T06:29:55;3.15;;;2.25;;
68315;SDS011;55508;54.368;18.406;2022-07-24T06:32:22;2.95;;;1.88;;
68315;SDS011;55508;54.368;18.406;2022-07-24T06:34:50;2.15;;;1.98;;
68315;SDS011;55508;54.368;18.406;2022-07-24T06:37:17;2.78;;;2.10;;
68315;SDS011;55508;54.368;18.406;2022-07-24T06:39:46;2.08;;;1.88;;
68315;SDS011;55508;54.368;18.406;2022-07-24T06:42:13;2.42;;;2.10;;
68315;SDS011;55508;54.368;18.406;2022-07-24T06:44:41;2.47;;;1.92;;
68315;SDS011;55508;54.368;18.406;2022-07-24T06:47:08;3.08;;;1.85;;
68315;SDS011;55508;54.368;18.406;2022-07-24T06:49:35;2.50;;;1.63;;
68315;SDS011;55508;54.368;18.406;2022-07-24T06:52:02;2.25;;;1.75;;
68315;SDS011;55508;54.368;18.406;2022-07-24T06:54:29;2.92;;;2.00;;
68315;SDS011;55508;54.368;18.406;2022-07-24T06:56:57;2.30;;;1.73;;
68315;SDS011;55508;54.368;18.406;2022-07-24T06:59:24;2.78;;;1.88;;
68315;SDS011;55508;54.368;18.406;2022-07-24T07:01:51;2.42;;;1.75;;
68315;SDS011;55508;54.368;18.406;2022-07-24T07:04:18;4.18;;;1.73;;
68315;SDS011;55508;54.368;18.406;2022-07-24T07:06:45;2.47;;;1.90;;
68315;SDS011;55508;54.368;18.406;2022-07-24T07:09:12;3.38;;;1.58;;
68315;SDS011;55508;54.368;18.406;2022-07-24T07:11:40;4.15;;;2.05;;
68315;SDS011;55508;54.368;18.406;2022-07-24T07:14:07;3.42;;;1.85;;
68315;SDS011;55508;54.368;18.406;2022-07-24T07:16:38;1.83;;;1.63;;
68315;SDS011;55508;54.368;18.406;2022-07-24T07:19:06;1.80;;;1.70;;
68315;SDS011;55508;54.368;18.406;2022-07-24T07:21:34;2.30;;;1.70;;
68315;SDS011;55508;54.368;18.406;2022-07-24T07:24:03;2.80;;;1.70;;
68315;SDS011;55508;54.368;18.406;2022-07-24T07:26:31;1.73;;;1.60;;
68315;SDS011;55508;54.368;18.406;2022-07-24T07:28:58;2.03;;;1.58;;
68315;SDS011;55508;54.368;18.406;2022-07-24T07:31:25;2.65;;;1.75;;
68315;SDS011;55508;54.368;18.406;2022-07-24T07:33:53;4.43;;;1.80;;
68315;SDS011;55508;54.368;18.406;2022-07-24T07:36:20;5.32;;;1.85;;
68315;SDS011;55508;54.368;18.406;2022-07-24T07:38:47;2.50;;;1.70;;
68315;SDS011;55508;54.368;18.406;2022-07-24T07:41:14;2.25;;;1.75;;
68315;SDS011;55508;54.368;18.406;2022-07-24T07:43:42;3.03;;;2.50;;
68315;SDS011;55508;54.368;18.406;2022-07-24T07:46:09;2.78;;;2.00;;
68315;SDS011;55508;54.368;18.406;2022-07-24T07:48:36;5.00;;;2.35;;
68315;SDS011;55508;54.368;18.406;2022-07-24T07:51:03;2.40;;;2.17;;
68315;SDS011;55508;54.368;18.406;2022-07-24T07:53:31;3.00;;;2.30;;
68315;SDS011;55508;54.368;18.406;2022-07-24T07:55:58;2.80;;;2.05;;
68315;SDS011;55508;54.368;18.406;2022-07-24T07:58:25;4.00;;;2.30;;
68315;SDS011;55508;54.368;18.406;2022-07-24T08:00:55;4.45;;;2.10;;
68315;SDS011;55508;54.368;18.406;2022-07-24T08:03:23;3.58;;;2.00;;
68315;SDS011;55508;54.368;18.406;2022-07-24T08:05:50;3.25;;;2.55;;
68315;SDS011;55508;54.368;18.406;2022-07-24T08:08:24;4.82;;;2.40;;
68315;SDS011;55508;54.368;18.406;2022-07-24T08:10:52;2.53;;;1.77;;
68315;SDS011;55508;54.368;18.406;2022-07-24T08:13:19;3.00;;;2.00;;
68315;SDS011;55508;54.368;18.406;2022-07-24T08:15:46;2.83;;;1.85;;
68315;SDS011;55508;54.368;18.406;2022-07-24T08:18:14;4.40;;;1.77;;
68315;SDS011;55508;54.368;18.406;2022-07-24T08:20:41;3.47;;;2.03;;
68315;SDS011;55508;54.368;18.406;2022-07-24T08:23:10;2.95;;;2.00;;
68315;SDS011;55508;54.368;18.406;2022-07-24T08:25:37;3.50;;;1.80;;
68315;SDS011;55508;54.368;18.406;2022-07-24T08:28:05;3.25;;;1.77;;
68315;SDS011;55508;54.368;18.406;2022-07-24T08:30:32;5.18;;;2.00;;
68315;SDS011;55508;54.368;18.406;2022-07-24T08:32:59;4.43;;;1.90;;
68315;SDS011;55508;54.368;18.406;2022-07-24T08:35:26;15.57;;;3.45;;
68315;SDS011;55508;54.368;18.406;2022-07-24T08:37:59;4.80;;;2.00;;
68315;SDS011;55508;54.368;18.406;2022-07-24T08:40:34;4.50;;;2.03;;
68315;SDS011;55508;54.368;18.406;2022-07-24T08:43:07;4.95;;;1.98;;
68315;SDS011;55508;54.368;18.406;2022-07-24T08:45:36;3.40;;;2.00;;
68315;SDS011;55508;54.368;18.406;2022-07-24T08:48:05;4.22;;;1.90;;
68315;SDS011;55508;54.368;18.406;2022-07-24T08:50:34;3.67;;;2.03;;
68315;SDS011;55508;54.368;18.406;2022-07-24T08:53:03;4.78;;;1.70;;
68315;SDS011;55508;54.368;18.406;2022-07-24T08:55:31;4.15;;;2.20;;
68315;SDS011;55508;54.368;18.406;2022-07-24T08:57:59;5.15;;;2.00;;
68315;SDS011;55508;54.368;18.406;2022-07-24T09:00:27;12.55;;;3.10;;
68315;SDS011;55508;54.368;18.406;2022-07-24T09:02:55;3.83;;;2.60;;
68315;SDS011;55508;54.368;18.406;2022-07-24T09:05:22;3.28;;;2.10;;
68315;SDS011;55508;54.368;18.406;2022-07-24T09:08:04;6.63;;;2.20;;
68315;SDS011;55508;54.368;18.406;2022-07-24T09:10:36;1.85;;;1.75;;
68315;SDS011;55508;54.368;18.406;2022-07-24T09:13:16;2.13;;;1.92;;
68315;SDS011;55508;54.368;18.406;2022-07-24T09:15:45;2.47;;;2.28;;
68315;SDS011;55508;54.368;18.406;2022-07-24T09:21:21;4.72;;;2.20;;
68315;SDS011;55508;54.368;18.406;2022-07-24T09:23:47;2.22;;;2.03;;
68315;SDS011;55508;54.368;18.406;2022-07-24T09:26:15;3.13;;;2.85;;
68315;SDS011;55508;54.368;18.406;2022-07-24T09:28:49;6.50;;;2.30;;
68315;SDS011;55508;54.368;18.406;2022-07-24T09:31:19;3.20;;;2.05;;
68315;SDS011;55508;54.368;18.406;2022-07-24T09:33:49;3.67;;;2.05;;
68315;SDS011;55508;54.368;18.406;2022-07-24T09:36:17;3.45;;;2.40;;
68315;SDS011;55508;54.368;18.406;2022-07-24T09:38:48;2.65;;;1.88;;
68315;SDS011;55508;54.368;18.406;2022-07-24T09:41:20;3.35;;;1.95;;
68315;SDS011;55508;54.368;18.406;2022-07-24T09:46:45;2.83;;;1.88;;
68315;SDS011;55508;54.368;18.406;2022-07-24T09:49:20;2.55;;;1.90;;
68315;SDS011;55508;54.368;18.406;2022-07-24T09:54:34;2.38;;;1.80;;
68315;SDS011;55508;54.368;18.406;2022-07-24T10:02:28;2.47;;;1.90;;
68315;SDS011;55508;54.368;18.406;2022-07-24T10:04:58;2.17;;;1.90;;
68315;SDS011;55508;54.368;18.406;2022-07-24T10:07:26;3.97;;;2.42;;
68315;SDS011;55508;54.368;18.406;2022-07-24T10:09:55;4.03;;;2.10;;
68315;SDS011;55508;54.368;18.406;2022-07-24T10:12:28;2.58;;;1.80;;
68315;SDS011;55508;54.368;18.406;2022-07-24T10:14:57;3.78;;;1.90;;
68315;SDS011;55508;54.368;18.406;2022-07-24T10:20:38;2.28;;;1.98;;
68315;SDS011;55508;54.368;18.406;2022-07-24T10:23:23;3.90;;;2.08;;
68315;SDS011;55508;54.368;18.406;2022-07-24T10:28:53;2.08;;;1.88;;
68315;SDS011;55508;54.368;18.406;2022-07-24T10:31:13;4.45;;;1.85;;
68315;SDS011;55508;54.368;18.406;2022-07-24T10:33:41;2.25;;;2.00;;
68315;SDS011;55508;54.368;18.406;2022-07-24T10:36:15;3.75;;;1.85;;
68315;SDS011;55508;54.368;18.406;2022-07-24T10:38:47;2.17;;;1.90;;
68315;SDS011;55508;54.368;18.406;2022-07-24T10:41:21;2.83;;;1.90;;
68315;SDS011;55508;54.368;18.406;2022-07-24T10:44:12;4.53;;;2.40;;
68315;SDS011;55508;54.368;18.406;2022-07-24T10:47:20;2.50;;;1.90;;
68315;SDS011;55508;54.368;18.406;2022-07-24T10:49:46;2.17;;;2.03;;
68315;SDS011;55508;54.368;18.406;2022-07-24T10:52:23;4.65;;;2.15;;
68315;SDS011;55508;54.368;18.406;2022-07-24T10:58:04;3.28;;;2.15;;
68315;SDS011;55508;54.368;18.406;2022-07-24T11:00:43;2.47;;;2.28;;
68315;SDS011;55508;54.368;18.406;2022-07-24T11:03:22;2.53;;;1.63;;
68315;SDS011;55508;54.368;18.406;2022-07-24T11:08:47;2.83;;;2.00;;
68315;SDS011;55508;54.368;18.406;2022-07-24T11:11:16;2.22;;;2.00;;
68315;SDS011;55508;54.368;18.406;2022-07-24T11:13:49;2.95;;;2.10;;
68315;SDS011;55508;54.368;18.406;2022-07-24T11:16:30;2.00;;;1.80;;
68315;SDS011;55508;54.368;18.406;2022-07-24T11:21:36;2.50;;;2.17;;
68315;SDS011;55508;54.368;18.406;2022-07-24T11:26:47;2.13;;;1.92;;
68315;SDS011;55508;54.368;18.406;2022-07-24T11:29:22;3.70;;;2.55;;
68315;SDS011;55508;54.368;18.406;2022-07-24T11:31:52;3.55;;;2.20;;
68315;SDS011;55508;54.368;18.406;2022-07-24T11:34:21;2.25;;;1.70;;
68315;SDS011;55508;54.368;18.406;2022-07-24T11:36:49;4.78;;;2.10;;
68315;SDS011;55508;54.368;18.406;2022-07-24T11:39:19;3.00;;;1.98;;
68315;SDS011;55508;54.368;18.406;2022-07-24T11:41:51;2.28;;;2.00;;
68315;SDS011;55508;54.368;18.406;2022-07-24T11:44:24;2.28;;;2.00;;
68315;SDS011;55508;54.368;18.406;2022-07-24T11:46:52;3.65;;;1.90;;
68315;SDS011;55508;54.368;18.406;2022-07-24T11:49:20;3.15;;;2.25;;
68315;SDS011;55508;54.368;18.406;2022-07-24T11:51:49;3.92;;;2.00;;
68315;SDS011;55508;54.368;18.406;2022-07-24T11:54:22;6.00;;;3.33;;
68315;SDS011;55508;54.368;18.406;2022-07-24T11:56:51;4.28;;;3.88;;
68315;SDS011;55508;54.368;18.406;2022-07-24T11:59:26;4.32;;;2.70;;
68315;SDS011;55508;54.368;18.406;2022-07-24T12:02:06;4.05;;;2.60;;
68315;SDS011;55508;54.368;18.406;2022-07-24T12:04:37;2.93;;;1.80;;
68315;SDS011;55508;54.368;18.406;2022-07-24T12:12:26;3.60;;;2.08;;
68315;SDS011;55508;54.368;18.406;2022-07-24T12:15:08;2.97;;;1.77;;
68315;SDS011;55508;54.368;18.406;2022-07-24T12:20:31;3.60;;;2.28;;
68315;SDS011;55508;54.368;18.406;2022-07-24T12:23:03;2.92;;;1.75;;
68315;SDS011;55508;54.368;18.406;2022-07-24T12:25:32;1.88;;;1.77;;
68315;SDS011;55508;54.368;18.406;2022-07-24T12:30:35;2.10;;;1.90;;
68315;SDS011;55508;54.368;18.406;2022-07-24T12:38:26;3.30;;;1.60;;
68315;SDS011;55508;54.368;18.406;2022-07-24T12:43:45;2.08;;;1.67;;
68315;SDS011;55508;54.368;18.406;2022-07-24T12:46:13;2.08;;;1.80;;
68315;SDS011;55508;54.368;18.406;2022-07-24T12:48:55;2.72;;;2.03;;
68315;SDS011;55508;54.368;18.406;2022-07-24T12:54:19;3.33;;;2.35;;
68315;SDS011;55508;54.368;18.406;2022-07-24T12:57:00;2.67;;;1.85;;
68315;SDS011;55508;54.368;18.406;2022-07-24T12:59:33;1.98;;;1.77;;
68315;SDS011;55508;54.368;18.406;2022-07-24T13:02:05;2.78;;;1.85;;
68315;SDS011;55508;54.368;18.406;2022-07-24T13:04:32;2.40;;;1.80;;
68315;SDS011;55508;54.368;18.406;2022-07-24T13:07:07;2.65;;;1.80;;
68315;SDS011;55508;54.368;18.406;2022-07-24T13:09:35;2.20;;;1.73;;
68315;SDS011;55508;54.368;18.406;2022-07-24T13:12:04;3.55;;;1.80;;
68315;SDS011;55508;54.368;18.406;2022-07-24T13:14:32;3.58;;;1.88;;
68315;SDS011;55508;54.368;18.406;2022-07-24T13:17:03;1.80;;;1.70;;
68315;SDS011;55508;54.368;18.406;2022-07-24T13:19:36;2.25;;;2.05;;
68315;SDS011;55508;54.368;18.406;2022-07-24T13:22:03;2.60;;;1.80;;
68315;SDS011;55508;54.368;18.406;2022-07-24T13:24:31;2.30;;;1.88;;
68315;SDS011;55508;54.368;18.406;2022-07-24T13:26:59;3.15;;;2.33;;
68315;SDS011;55508;54.368;18.406;2022-07-24T13:29:27;3.88;;;1.88;;
68315;SDS011;55508;54.368;18.406;2022-07-24T13:31:54;4.18;;;2.42;;
68315;SDS011;55508;54.368;18.406;2022-07-24T13:34:21;2.92;;;1.95;;
68315;SDS011;55508;54.368;18.406;2022-07-24T13:36:49;2.28;;;2.08;;
68315;SDS011;55508;54.368;18.406;2022-07-24T13:39:17;2.53;;;1.75;;
68315;SDS011;55508;54.368;18.406;2022-07-24T13:41:45;2.78;;;1.70;;
68315;SDS011;55508;54.368;18.406;2022-07-24T13:44:13;1.95;;;1.85;;
68315;SDS011;55508;54.368;18.406;2022-07-24T13:46:40;3.78;;;2.13;;
68315;SDS011;55508;54.368;18.406;2022-07-24T13:49:08;2.05;;;1.83;;
68315;SDS011;55508;54.368;18.406;2022-07-24T13:51:35;2.63;;;2.30;;
68315;SDS011;55508;54.368;18.406;2022-07-24T13:54:04;2.30;;;2.10;;
68315;SDS011;55508;54.368;18.406;2022-07-24T13:56:33;3.88;;;2.35;;
68315;SDS011;55508;54.368;18.406;2022-07-24T13:59:00;2.75;;;2.40;;
68315;SDS011;55508;54.368;18.406;2022-07-24T14:01:29;5.57;;;2.60;;
68315;SDS011;55508;54.368;18.406;2022-07-24T14:04:01;2.83;;;2.55;;
68315;SDS011;55508;54.368;18.406;2022-07-24T14:06:51;3.63;;;2.92;;
68315;SDS011;55508;54.368;18.406;2022-07-24T14:09:18;2.67;;;2.28;;
68315;SDS011;55508;54.368;18.406;2022-07-24T14:11:46;3.53;;;2.40;;
68315;SDS011;55508;54.368;18.406;2022-07-24T14:14:13;5.80;;;2.45;;
68315;SDS011;55508;54.368;18.406;2022-07-24T14:16:40;3.63;;;2.00;;
68315;SDS011;55508;54.368;18.406;2022-07-24T14:19:08;2.13;;;1.92;;
68315;SDS011;55508;54.368;18.406;2022-07-24T14:21:35;2.10;;;1.95;;
68315;SDS011;55508;54.368;18.406;2022-07-24T14:24:03;6.03;;;1.83;;
68315;SDS011;55508;54.368;18.406;2022-07-24T14:26:37;2.08;;;1.88;;
68315;SDS011;55508;54.368;18.406;2022-07-24T14:29:04;2.72;;;2.00;;
68315;SDS011;55508;54.368;18.406;2022-07-24T14:31:31;2.92;;;1.58;;
68315;SDS011;55508;54.368;18.406;2022-07-24T14:33:59;2.35;;;1.60;;
68315;SDS011;55508;54.368;18.406;2022-07-24T14:36:26;4.90;;;1.80;;
68315;SDS011;55508;54.368;18.406;2022-07-24T14:38:54;2.13;;;1.80;;
68315;SDS011;55508;54.368;18.406;2022-07-24T14:41:21;1.85;;;1.75;;
68315;SDS011;55508;54.368;18.406;2022-07-24T14:43:48;5.03;;;1.67;;
68315;SDS011;55508;54.368;18.406;2022-07-24T14:46:16;3.90;;;1.13;;
68315;SDS011;55508;54.368;18.406;2022-07-24T14:48:43;2.25;;;1.20;;
68315;SDS011;55508;54.368;18.406;2022-07-24T14:51:11;2.63;;;1.02;;
68315;SDS011;55508;54.368;18.406;2022-07-24T14:53:38;1.45;;;1.35;;
68315;SDS011;55508;54.368;18.406;2022-07-24T14:56:05;3.00;;;1.80;;
68315;SDS011;55508;54.368;18.406;2022-07-24T14:58:32;3.72;;;1.50;;
68315;SDS011;55508;54.368;18.406;2022-07-24T15:00:59;2.08;;;1.40;;
68315;SDS011;55508;54.368;18.406;2022-07-24T15:03:27;4.65;;;1.27;;
68315;SDS011;55508;54.368;18.406;2022-07-24T15:05:54;1.13;;;1.02;;
68315;SDS011;55508;54.368;18.406;2022-07-24T15:08:21;1.58;;;1.40;;
68315;SDS011;55508;54.368;18.406;2022-07-24T15:10:48;1.63;;;1.00;;
68315;SDS011;55508;54.368;18.406;2022-07-24T15:13:15;2.20;;;1.20;;
68315;SDS011;55508;54.368;18.406;2022-07-24T15:15:42;2.10;;;1.08;;
68315;SDS011;55508;54.368;18.406;2022-07-24T15:18:11;1.83;;;1.00;;
68315;SDS011;55508;54.368;18.406;2022-07-24T15:20:38;1.15;;;0.90;;
68315;SDS011;55508;54.368;18.406;2022-07-24T15:23:05;1.15;;;0.93;;
68315;SDS011;55508;54.368;18.406;2022-07-24T15:25:33;1.65;;;1.20;;
68315;SDS011;55508;54.368;18.406;2022-07-24T15:28:00;1.15;;;1.05;;
68315;SDS011;55508;54.368;18.406;2022-07-24T15:30:29;1.40;;;1.00;;
68315;SDS011;55508;54.368;18.406;2022-07-24T15:32:57;1.75;;;1.30;;
68315;SDS011;55508;54.368;18.406;2022-07-24T15:35:31;4.80;;;1.42;;